sensor_id;sensor_type;location;lat;lon;timestamp;temperature;humidity
76613;DHT22;65507;48.454;-2.058;2023-02-01T00:01:31;9.80;76.40
76613;DHT22;65507;48.454;-2.058;2023-02-01T00:03:57;9.80;76.50
76613;DHT22;65507;48.454;-2.058;2023-02-01T00:06:22;9.80;76.50
76613;DHT22;65507;48.454;-2.058;2023-02-01T00:08:48;9.80;76.50
76613;DHT22;65507;48.454;-2.058;2023-02-01T00:11:17;9.80;76.50
76613;DHT22;65507;48.454;-2.058;2023-02-01T00:13:42;9.80;76.50
76613;DHT22;65507;48.454;-2.058;2023-02-01T00:16:09;9.80;76.60
76613;DHT22;65507;48.454;-2.058;2023-02-01T00:18:35;9.80;76.50
76613;DHT22;65507;48.454;-2.058;2023-02-01T00:21:01;9.80;76.50
76613;DHT22;65507;48.454;-2.058;2023-02-01T00:23:26;9.80;76.60
76613;DHT22;65507;48.454;-2.058;2023-02-01T00:25:52;9.80;76.50
76613;DHT22;65507;48.454;-2.058;2023-02-01T00:28:18;9.80;76.50
76613;DHT22;65507;48.454;-2.058;2023-02-01T00:30:43;9.80;76.50
76613;DHT22;65507;48.454;-2.058;2023-02-01T00:33:09;9.80;76.70
76613;DHT22;65507;48.454;-2.058;2023-02-01T00:35:35;9.80;76.50
76613;DHT22;65507;48.454;-2.058;2023-02-01T00:38:01;9.80;76.40
76613;DHT22;65507;48.454;-2.058;2023-02-01T00:40:26;9.90;76.40
76613;DHT22;65507;48.454;-2.058;2023-02-01T00:42:52;9.80;76.50
76613;DHT22;65507;48.454;-2.058;2023-02-01T00:45:18;9.80;76.40
76613;DHT22;65507;48.454;-2.058;2023-02-01T00:47:43;9.80;76.40
76613;DHT22;65507;48.454;-2.058;2023-02-01T00:50:09;9.80;76.50
76613;DHT22;65507;48.454;-2.058;2023-02-01T00:52:35;9.70;76.50
76613;DHT22;65507;48.454;-2.058;2023-02-01T00:55:01;9.70;76.50
76613;DHT22;65507;48.454;-2.058;2023-02-01T00:57:26;9.70;76.40
76613;DHT22;65507;48.454;-2.058;2023-02-01T00:59:52;9.70;76.60
76613;DHT22;65507;48.454;-2.058;2023-02-01T01:02:17;9.70;76.40
76613;DHT22;65507;48.454;-2.058;2023-02-01T01:04:43;9.70;76.50
76613;DHT22;65507;48.454;-2.058;2023-02-01T01:07:09;9.70;76.40
76613;DHT22;65507;48.454;-2.058;2023-02-01T01:09:34;10.30;76.80
76613;DHT22;65507;48.454;-2.058;2023-02-01T01:12:00;9.70;76.50
76613;DHT22;65507;48.454;-2.058;2023-02-01T01:14:28;9.70;76.60
76613;DHT22;65507;48.454;-2.058;2023-02-01T01:16:54;9.70;76.50
76613;DHT22;65507;48.454;-2.058;2023-02-01T01:19:19;9.70;76.40
76613;DHT22;65507;48.454;-2.058;2023-02-01T01:21:45;9.70;76.40
76613;DHT22;65507;48.454;-2.058;2023-02-01T01:24:10;9.70;76.40
76613;DHT22;65507;48.454;-2.058;2023-02-01T01:26:36;9.70;77.30
76613;DHT22;65507;48.454;-2.058;2023-02-01T01:29:02;9.70;76.40
76613;DHT22;65507;48.454;-2.058;2023-02-01T01:31:27;9.70;76.30
76613;DHT22;65507;48.454;-2.058;2023-02-01T01:33:54;9.70;76.20
76613;DHT22;65507;48.454;-2.058;2023-02-01T01:36:20;9.80;76.30
76613;DHT22;65507;48.454;-2.058;2023-02-01T01:38:46;9.80;76.40
76613;DHT22;65507;48.454;-2.058;2023-02-01T01:41:14;9.80;76.30
76613;DHT22;65507;48.454;-2.058;2023-02-01T01:43:47;9.80;76.30
76613;DHT22;65507;48.454;-2.058;2023-02-01T01:46:17;9.70;76.30
76613;DHT22;65507;48.454;-2.058;2023-02-01T01:48:43;9.70;76.20
76613;DHT22;65507;48.454;-2.058;2023-02-01T01:51:09;9.70;76.20
76613;DHT22;65507;48.454;-2.058;2023-02-01T01:53:37;9.70;76.20
76613;DHT22;65507;48.454;-2.058;2023-02-01T01:56:03;9.70;76.30
76613;DHT22;65507;48.454;-2.058;2023-02-01T01:58:29;9.70;76.40
76613;DHT22;65507;48.454;-2.058;2023-02-01T02:00:57;9.70;76.30
76613;DHT22;65507;48.454;-2.058;2023-02-01T02:03:30;9.70;76.30
76613;DHT22;65507;48.454;-2.058;2023-02-01T02:05:59;9.70;76.20
76613;DHT22;65507;48.454;-2.058;2023-02-01T02:08:26;9.70;76.20
76613;DHT22;65507;48.454;-2.058;2023-02-01T02:10:52;9.70;76.30
76613;DHT22;65507;48.454;-2.058;2023-02-01T02:13:28;9.70;76.20
76613;DHT22;65507;48.454;-2.058;2023-02-01T02:15:59;9.50;76.10
76613;DHT22;65507;48.454;-2.058;2023-02-01T02:34:33;9.50;76.10
76613;DHT22;65507;48.454;-2.058;2023-02-01T02:37:19;9.50;76.10
76613;DHT22;65507;48.454;-2.058;2023-02-01T02:45:12;9.60;76.00
76613;DHT22;65507;48.454;-2.058;2023-02-01T02:51:01;9.60;75.90
76613;DHT22;65507;48.454;-2.058;2023-02-01T02:53:51;9.60;75.80
76613;DHT22;65507;48.454;-2.058;2023-02-01T02:56:37;9.60;75.70
76613;DHT22;65507;48.454;-2.058;2023-02-01T02:59:22;9.70;75.80
76613;DHT22;65507;48.454;-2.058;2023-02-01T03:02:07;9.70;75.80
76613;DHT22;65507;48.454;-2.058;2023-02-01T03:04:52;9.70;75.80
76613;DHT22;65507;48.454;-2.058;2023-02-01T03:10:06;9.60;75.90
76613;DHT22;65507;48.454;-2.058;2023-02-01T03:12:33;9.60;75.90
76613;DHT22;65507;48.454;-2.058;2023-02-01T03:15:18;9.60;75.90
76613;DHT22;65507;48.454;-2.058;2023-02-01T03:17:44;9.60;75.80
76613;DHT22;65507;48.454;-2.058;2023-02-01T03:20:10;9.60;75.80
76613;DHT22;65507;48.454;-2.058;2023-02-01T03:22:39;9.70;75.80
76613;DHT22;65507;48.454;-2.058;2023-02-01T03:25:10;9.70;75.70
76613;DHT22;65507;48.454;-2.058;2023-02-01T03:27:41;9.70;75.80
76613;DHT22;65507;48.454;-2.058;2023-02-01T03:32:35;9.70;75.70
76613;DHT22;65507;48.454;-2.058;2023-02-01T03:35:32;9.70;75.70
76613;DHT22;65507;48.454;-2.058;2023-02-01T03:38:06;9.70;75.80
76613;DHT22;65507;48.454;-2.058;2023-02-01T03:40:33;9.70;75.80
76613;DHT22;65507;48.454;-2.058;2023-02-01T03:43:00;9.70;75.90
76613;DHT22;65507;48.454;-2.058;2023-02-01T03:45:31;9.70;75.90
76613;DHT22;65507;48.454;-2.058;2023-02-01T03:47:59;9.80;75.90
76613;DHT22;65507;48.454;-2.058;2023-02-01T03:50:25;9.80;75.90
76613;DHT22;65507;48.454;-2.058;2023-02-01T03:52:53;9.80;75.90
76613;DHT22;65507;48.454;-2.058;2023-02-01T03:55:20;9.80;75.80
76613;DHT22;65507;48.454;-2.058;2023-02-01T04:00:28;9.80;75.80
76613;DHT22;65507;48.454;-2.058;2023-02-01T04:02:53;9.80;75.80
76613;DHT22;65507;48.454;-2.058;2023-02-01T04:05:20;9.80;75.90
76613;DHT22;65507;48.454;-2.058;2023-02-01T04:07:46;9.80;75.90
76613;DHT22;65507;48.454;-2.058;2023-02-01T04:10:11;9.80;75.90
76613;DHT22;65507;48.454;-2.058;2023-02-01T04:12:37;9.80;76.00
76613;DHT22;65507;48.454;-2.058;2023-02-01T04:15:03;9.80;76.10
76613;DHT22;65507;48.454;-2.058;2023-02-01T04:17:29;9.80;75.90
76613;DHT22;65507;48.454;-2.058;2023-02-01T04:19:55;9.90;75.90
76613;DHT22;65507;48.454;-2.058;2023-02-01T04:22:21;9.90;76.00
76613;DHT22;65507;48.454;-2.058;2023-02-01T04:24:47;9.90;75.90
76613;DHT22;65507;48.454;-2.058;2023-02-01T04:27:12;9.90;75.80
76613;DHT22;65507;48.454;-2.058;2023-02-01T04:29:38;9.80;75.90
76613;DHT22;65507;48.454;-2.058;2023-02-01T04:32:04;9.80;75.80
76613;DHT22;65507;48.454;-2.058;2023-02-01T04:34:30;9.80;75.90
76613;DHT22;65507;48.454;-2.058;2023-02-01T04:36:55;9.80;76.00
76613;DHT22;65507;48.454;-2.058;2023-02-01T04:39:21;9.70;76.00
76613;DHT22;65507;48.454;-2.058;2023-02-01T04:41:47;9.80;76.90
76613;DHT22;65507;48.454;-2.058;2023-02-01T04:44:13;9.80;75.90
76613;DHT22;65507;48.454;-2.058;2023-02-01T04:46:39;9.80;75.80
76613;DHT22;65507;48.454;-2.058;2023-02-01T04:49:04;9.80;75.70
76613;DHT22;65507;48.454;-2.058;2023-02-01T04:51:30;9.80;75.70
76613;DHT22;65507;48.454;-2.058;2023-02-01T04:53:56;9.80;75.70
76613;DHT22;65507;48.454;-2.058;2023-02-01T04:56:22;9.80;75.70
76613;DHT22;65507;48.454;-2.058;2023-02-01T04:58:47;9.80;75.60
76613;DHT22;65507;48.454;-2.058;2023-02-01T05:01:13;9.80;75.60
76613;DHT22;65507;48.454;-2.058;2023-02-01T05:03:38;9.80;75.50
76613;DHT22;65507;48.454;-2.058;2023-02-01T05:06:04;9.80;75.50
76613;DHT22;65507;48.454;-2.058;2023-02-01T05:08:30;9.80;75.60
76613;DHT22;65507;48.454;-2.058;2023-02-01T05:10:56;9.80;75.50
76613;DHT22;65507;48.454;-2.058;2023-02-01T05:13:22;9.80;75.50
76613;DHT22;65507;48.454;-2.058;2023-02-01T05:16:06;9.80;75.50
76613;DHT22;65507;48.454;-2.058;2023-02-01T05:18:31;9.80;75.50
76613;DHT22;65507;48.454;-2.058;2023-02-01T05:20:57;9.70;75.50
76613;DHT22;65507;48.454;-2.058;2023-02-01T05:23:23;9.80;75.50
76613;DHT22;65507;48.454;-2.058;2023-02-01T05:25:48;9.80;75.50
76613;DHT22;65507;48.454;-2.058;2023-02-01T05:28:14;9.70;75.70
76613;DHT22;65507;48.454;-2.058;2023-02-01T05:30:39;9.70;75.60
76613;DHT22;65507;48.454;-2.058;2023-02-01T05:33:05;9.70;75.50
76613;DHT22;65507;48.454;-2.058;2023-02-01T05:35:30;9.70;75.50
76613;DHT22;65507;48.454;-2.058;2023-02-01T05:37:56;9.70;75.50
76613;DHT22;65507;48.454;-2.058;2023-02-01T05:40:22;9.70;75.40
76613;DHT22;65507;48.454;-2.058;2023-02-01T05:42:47;9.70;75.50
76613;DHT22;65507;48.454;-2.058;2023-02-01T05:45:13;9.70;75.50
76613;DHT22;65507;48.454;-2.058;2023-02-01T05:47:38;9.70;75.50
76613;DHT22;65507;48.454;-2.058;2023-02-01T05:50:04;9.70;75.50
76613;DHT22;65507;48.454;-2.058;2023-02-01T05:52:30;9.70;75.50
76613;DHT22;65507;48.454;-2.058;2023-02-01T05:54:56;9.70;75.50
76613;DHT22;65507;48.454;-2.058;2023-02-01T05:57:21;9.70;75.40
76613;DHT22;65507;48.454;-2.058;2023-02-01T05:59:47;9.70;75.60
76613;DHT22;65507;48.454;-2.058;2023-02-01T06:02:14;9.70;75.50
76613;DHT22;65507;48.454;-2.058;2023-02-01T06:04:40;9.70;75.50
76613;DHT22;65507;48.454;-2.058;2023-02-01T06:07:06;9.70;75.50
76613;DHT22;65507;48.454;-2.058;2023-02-01T06:09:33;9.70;75.50
76613;DHT22;65507;48.454;-2.058;2023-02-01T06:11:59;9.70;75.50
76613;DHT22;65507;48.454;-2.058;2023-02-01T06:14:26;9.70;75.50
76613;DHT22;65507;48.454;-2.058;2023-02-01T06:16:53;9.70;75.60
76613;DHT22;65507;48.454;-2.058;2023-02-01T06:19:18;9.70;75.60
76613;DHT22;65507;48.454;-2.058;2023-02-01T06:21:44;9.60;75.60
76613;DHT22;65507;48.454;-2.058;2023-02-01T06:24:10;9.70;75.80
76613;DHT22;65507;48.454;-2.058;2023-02-01T06:26:36;9.60;75.60
76613;DHT22;65507;48.454;-2.058;2023-02-01T06:29:01;9.70;75.60
76613;DHT22;65507;48.454;-2.058;2023-02-01T06:31:27;9.70;75.50
76613;DHT22;65507;48.454;-2.058;2023-02-01T06:33:52;9.70;75.50
76613;DHT22;65507;48.454;-2.058;2023-02-01T06:36:19;9.60;75.50
76613;DHT22;65507;48.454;-2.058;2023-02-01T06:38:47;9.60;75.50
76613;DHT22;65507;48.454;-2.058;2023-02-01T06:41:12;8.40;74.80
76613;DHT22;65507;48.454;-2.058;2023-02-01T06:43:38;9.70;75.50
76613;DHT22;65507;48.454;-2.058;2023-02-01T06:46:05;9.70;75.50
76613;DHT22;65507;48.454;-2.058;2023-02-01T06:48:31;9.70;75.40
76613;DHT22;65507;48.454;-2.058;2023-02-01T06:50:57;9.70;75.50
76613;DHT22;65507;48.454;-2.058;2023-02-01T06:53:23;9.60;75.40
76613;DHT22;65507;48.454;-2.058;2023-02-01T06:55:52;9.60;75.50
76613;DHT22;65507;48.454;-2.058;2023-02-01T06:58:18;9.60;75.50
76613;DHT22;65507;48.454;-2.058;2023-02-01T07:00:43;9.60;75.60
76613;DHT22;65507;48.454;-2.058;2023-02-01T07:03:09;9.60;75.60
76613;DHT22;65507;48.454;-2.058;2023-02-01T07:05:35;9.60;75.60
76613;DHT22;65507;48.454;-2.058;2023-02-01T07:08:00;9.60;75.50
76613;DHT22;65507;48.454;-2.058;2023-02-01T07:10:26;9.60;75.40
76613;DHT22;65507;48.454;-2.058;2023-02-01T07:12:51;9.60;75.60
76613;DHT22;65507;48.454;-2.058;2023-02-01T07:15:17;9.60;75.60
76613;DHT22;65507;48.454;-2.058;2023-02-01T07:17:43;9.60;75.60
76613;DHT22;65507;48.454;-2.058;2023-02-01T07:20:10;9.60;75.70
76613;DHT22;65507;48.454;-2.058;2023-02-01T07:22:35;9.60;75.50
76613;DHT22;65507;48.454;-2.058;2023-02-01T07:25:01;9.60;75.80
76613;DHT22;65507;48.454;-2.058;2023-02-01T07:27:27;9.50;75.60
76613;DHT22;65507;48.454;-2.058;2023-02-01T07:29:52;9.50;75.80
76613;DHT22;65507;48.454;-2.058;2023-02-01T07:32:18;9.50;75.70
76613;DHT22;65507;48.454;-2.058;2023-02-01T07:34:44;9.50;75.90
76613;DHT22;65507;48.454;-2.058;2023-02-01T07:37:10;9.50;75.80
76613;DHT22;65507;48.454;-2.058;2023-02-01T07:39:38;9.50;75.90
76613;DHT22;65507;48.454;-2.058;2023-02-01T07:42:03;9.40;75.90
76613;DHT22;65507;48.454;-2.058;2023-02-01T07:44:29;9.40;75.90
76613;DHT22;65507;48.454;-2.058;2023-02-01T07:46:54;9.40;76.00
76613;DHT22;65507;48.454;-2.058;2023-02-01T07:49:20;9.40;76.00
76613;DHT22;65507;48.454;-2.058;2023-02-01T07:51:46;9.40;76.10
76613;DHT22;65507;48.454;-2.058;2023-02-01T07:54:11;9.40;76.00
76613;DHT22;65507;48.454;-2.058;2023-02-01T07:56:37;9.40;76.10
76613;DHT22;65507;48.454;-2.058;2023-02-01T07:59:02;9.40;76.00
76613;DHT22;65507;48.454;-2.058;2023-02-01T08:01:28;9.40;76.20
76613;DHT22;65507;48.454;-2.058;2023-02-01T08:03:57;9.40;76.20
76613;DHT22;65507;48.454;-2.058;2023-02-01T08:06:27;9.00;75.70
76613;DHT22;65507;48.454;-2.058;2023-02-01T08:08:53;8.60;75.40
76613;DHT22;65507;48.454;-2.058;2023-02-01T08:11:20;9.50;75.80
76613;DHT22;65507;48.454;-2.058;2023-02-01T08:13:46;9.50;75.90
76613;DHT22;65507;48.454;-2.058;2023-02-01T08:16:12;9.60;75.90
76613;DHT22;65507;48.454;-2.058;2023-02-01T08:18:38;9.60;75.90
76613;DHT22;65507;48.454;-2.058;2023-02-01T08:21:05;9.50;77.10
76613;DHT22;65507;48.454;-2.058;2023-02-01T08:23:34;9.50;76.50
76613;DHT22;65507;48.454;-2.058;2023-02-01T08:26:10;9.50;76.60
76613;DHT22;65507;48.454;-2.058;2023-02-01T08:28:36;9.40;75.80
76613;DHT22;65507;48.454;-2.058;2023-02-01T08:31:08;9.40;75.80
76613;DHT22;65507;48.454;-2.058;2023-02-01T08:33:33;9.40;75.80
76613;DHT22;65507;48.454;-2.058;2023-02-01T08:36:03;9.50;75.80
76613;DHT22;65507;48.454;-2.058;2023-02-01T08:38:29;9.50;75.70
76613;DHT22;65507;48.454;-2.058;2023-02-01T08:40:55;9.60;76.10
76613;DHT22;65507;48.454;-2.058;2023-02-01T08:43:21;9.60;75.70
76613;DHT22;65507;48.454;-2.058;2023-02-01T08:45:50;9.60;75.50
76613;DHT22;65507;48.454;-2.058;2023-02-01T08:48:21;9.60;75.70
76613;DHT22;65507;48.454;-2.058;2023-02-01T08:50:47;9.60;75.90
76613;DHT22;65507;48.454;-2.058;2023-02-01T08:53:13;9.70;76.10
76613;DHT22;65507;48.454;-2.058;2023-02-01T08:55:39;9.70;76.00
76613;DHT22;65507;48.454;-2.058;2023-02-01T08:58:05;9.70;75.50
76613;DHT22;65507;48.454;-2.058;2023-02-01T09:00:30;9.70;75.40
76613;DHT22;65507;48.454;-2.058;2023-02-01T09:02:57;9.70;74.90
76613;DHT22;65507;48.454;-2.058;2023-02-01T09:05:25;9.80;74.80
76613;DHT22;65507;48.454;-2.058;2023-02-01T09:07:52;9.20;74.50
76613;DHT22;65507;48.454;-2.058;2023-02-01T09:10:18;10.70;75.30
76613;DHT22;65507;48.454;-2.058;2023-02-01T09:12:43;9.90;74.70
76613;DHT22;65507;48.454;-2.058;2023-02-01T09:15:09;9.50;74.80
76613;DHT22;65507;48.454;-2.058;2023-02-01T09:17:35;10.00;74.60
76613;DHT22;65507;48.454;-2.058;2023-02-01T09:20:03;10.00;75.00
76613;DHT22;65507;48.454;-2.058;2023-02-01T09:22:29;10.00;74.50
76613;DHT22;65507;48.454;-2.058;2023-02-01T09:24:54;10.00;74.60
76613;DHT22;65507;48.454;-2.058;2023-02-01T09:27:20;10.00;74.90
76613;DHT22;65507;48.454;-2.058;2023-02-01T09:29:46;10.00;75.10
76613;DHT22;65507;48.454;-2.058;2023-02-01T09:32:18;10.00;74.80
76613;DHT22;65507;48.454;-2.058;2023-02-01T09:34:44;10.00;75.00
76613;DHT22;65507;48.454;-2.058;2023-02-01T09:37:12;10.00;76.50
76613;DHT22;65507;48.454;-2.058;2023-02-01T09:39:38;10.00;74.80
76613;DHT22;65507;48.454;-2.058;2023-02-01T09:42:19;10.10;75.70
76613;DHT22;65507;48.454;-2.058;2023-02-01T09:47:18;10.20;74.50
76613;DHT22;65507;48.454;-2.058;2023-02-01T09:50:00;10.20;75.10
76613;DHT22;65507;48.454;-2.058;2023-02-01T09:52:34;10.30;74.30
76613;DHT22;65507;48.454;-2.058;2023-02-01T09:55:19;10.40;74.20
76613;DHT22;65507;48.454;-2.058;2023-02-01T09:57:49;10.00;74.20
76613;DHT22;65507;48.454;-2.058;2023-02-01T10:00:20;10.50;74.20
76613;DHT22;65507;48.454;-2.058;2023-02-01T10:02:49;10.50;74.10
76613;DHT22;65507;48.454;-2.058;2023-02-01T10:05:16;10.60;73.90
76613;DHT22;65507;48.454;-2.058;2023-02-01T10:10:14;10.60;73.90
76613;DHT22;65507;48.454;-2.058;2023-02-01T10:13:03;10.60;73.80
76613;DHT22;65507;48.454;-2.058;2023-02-01T10:20:52;10.80;73.80
76613;DHT22;65507;48.454;-2.058;2023-02-01T10:25:53;10.90;73.50
76613;DHT22;65507;48.454;-2.058;2023-02-01T10:28:19;10.90;73.40
76613;DHT22;65507;48.454;-2.058;2023-02-01T10:30:47;11.00;73.50
76613;DHT22;65507;48.454;-2.058;2023-02-01T10:33:17;11.00;73.40
76613;DHT22;65507;48.454;-2.058;2023-02-01T10:38:46;11.10;73.30
76613;DHT22;65507;48.454;-2.058;2023-02-01T10:41:13;11.10;73.60
76613;DHT22;65507;48.454;-2.058;2023-02-01T10:43:40;11.10;73.50
76613;DHT22;65507;48.454;-2.058;2023-02-01T10:46:06;11.20;73.30
76613;DHT22;65507;48.454;-2.058;2023-02-01T10:48:32;11.20;73.20
76613;DHT22;65507;48.454;-2.058;2023-02-01T10:50:58;11.20;73.00
76613;DHT22;65507;48.454;-2.058;2023-02-01T10:53:34;11.20;73.00
76613;DHT22;65507;48.454;-2.058;2023-02-01T10:56:09;11.30;72.90
76613;DHT22;65507;48.454;-2.058;2023-02-01T10:58:35;11.40;72.80
76613;DHT22;65507;48.454;-2.058;2023-02-01T11:01:03;11.40;72.70
76613;DHT22;65507;48.454;-2.058;2023-02-01T11:03:39;11.40;72.60
76613;DHT22;65507;48.454;-2.058;2023-02-01T11:06:24;11.40;72.50
76613;DHT22;65507;48.454;-2.058;2023-02-01T11:08:54;11.50;72.50
76613;DHT22;65507;48.454;-2.058;2023-02-01T11:11:22;11.50;72.30
76613;DHT22;65507;48.454;-2.058;2023-02-01T11:13:51;11.60;72.50
76613;DHT22;65507;48.454;-2.058;2023-02-01T11:16:17;11.60;72.40
76613;DHT22;65507;48.454;-2.058;2023-02-01T11:18:43;11.50;72.10
76613;DHT22;65507;48.454;-2.058;2023-02-01T11:21:09;11.80;72.00
76613;DHT22;65507;48.454;-2.058;2023-02-01T11:23:39;11.90;71.80
76613;DHT22;65507;48.454;-2.058;2023-02-01T11:26:13;12.00;71.80
76613;DHT22;65507;48.454;-2.058;2023-02-01T11:28:40;12.10;71.60
76613;DHT22;65507;48.454;-2.058;2023-02-01T11:31:10;12.30;71.40
76613;DHT22;65507;48.454;-2.058;2023-02-01T11:33:37;12.30;71.20
76613;DHT22;65507;48.454;-2.058;2023-02-01T11:36:12;12.30;71.30
76613;DHT22;65507;48.454;-2.058;2023-02-01T11:38:38;12.30;71.40
76613;DHT22;65507;48.454;-2.058;2023-02-01T11:43:55;12.30;71.40
76613;DHT22;65507;48.454;-2.058;2023-02-01T11:46:22;12.30;71.30
76613;DHT22;65507;48.454;-2.058;2023-02-01T11:48:50;12.30;71.30
76613;DHT22;65507;48.454;-2.058;2023-02-01T12:07:20;12.40;70.90
76613;DHT22;65507;48.454;-2.058;2023-02-01T12:12:19;12.30;71.20
76613;DHT22;65507;48.454;-2.058;2023-02-01T12:22:44;12.80;72.00
76613;DHT22;65507;48.454;-2.058;2023-02-01T12:33:16;11.90;71.80
76613;DHT22;65507;48.454;-2.058;2023-02-01T12:45:52;11.70;72.00
76613;DHT22;65507;48.454;-2.058;2023-02-01T12:48:27;11.60;72.00
76613;DHT22;65507;48.454;-2.058;2023-02-01T12:50:56;11.60;72.00
76613;DHT22;65507;48.454;-2.058;2023-02-01T12:55:52;11.60;71.80
76613;DHT22;65507;48.454;-2.058;2023-02-01T12:58:32;11.60;71.80
76613;DHT22;65507;48.454;-2.058;2023-02-01T13:01:05;11.20;71.60
76613;DHT22;65507;48.454;-2.058;2023-02-01T13:09:13;11.70;71.50
76613;DHT22;65507;48.454;-2.058;2023-02-01T13:11:31;11.80;71.40
76613;DHT22;65507;48.454;-2.058;2023-02-01T13:16:45;11.80;71.20
76613;DHT22;65507;48.454;-2.058;2023-02-01T13:21:39;11.90;71.20
76613;DHT22;65507;48.454;-2.058;2023-02-01T13:26:55;11.90;71.10
76613;DHT22;65507;48.454;-2.058;2023-02-01T13:29:22;11.90;71.00
76613;DHT22;65507;48.454;-2.058;2023-02-01T13:44:38;11.90;71.30
76613;DHT22;65507;48.454;-2.058;2023-02-01T13:47:10;11.80;71.30
76613;DHT22;65507;48.454;-2.058;2023-02-01T13:49:38;11.80;71.40
76613;DHT22;65507;48.454;-2.058;2023-02-01T13:52:06;11.80;71.40
76613;DHT22;65507;48.454;-2.058;2023-02-01T13:54:42;11.80;71.40
76613;DHT22;65507;48.454;-2.058;2023-02-01T13:57:58;11.60;71.40
76613;DHT22;65507;48.454;-2.058;2023-02-01T13:59:54;11.80;71.60
76613;DHT22;65507;48.454;-2.058;2023-02-01T14:05:02;11.80;71.40
76613;DHT22;65507;48.454;-2.058;2023-02-01T14:07:28;11.80;71.40
76613;DHT22;65507;48.454;-2.058;2023-02-01T14:09:54;11.80;71.40
76613;DHT22;65507;48.454;-2.058;2023-02-01T14:18:02;11.80;71.50
76613;DHT22;65507;48.454;-2.058;2023-02-01T14:20:48;11.80;71.40
76613;DHT22;65507;48.454;-2.058;2023-02-01T14:23:19;11.90;71.30
76613;DHT22;65507;48.454;-2.058;2023-02-01T14:25:45;11.90;71.50
76613;DHT22;65507;48.454;-2.058;2023-02-01T14:28:34;11.90;71.30
76613;DHT22;65507;48.454;-2.058;2023-02-01T14:30:58;11.90;71.30
76613;DHT22;65507;48.454;-2.058;2023-02-01T14:33:25;11.90;71.40
76613;DHT22;65507;48.454;-2.058;2023-02-01T14:36:01;11.90;71.40
76613;DHT22;65507;48.454;-2.058;2023-02-01T14:38:27;11.80;71.40
76613;DHT22;65507;48.454;-2.058;2023-02-01T14:41:09;11.80;71.80
76613;DHT22;65507;48.454;-2.058;2023-02-01T14:43:51;11.80;71.60
76613;DHT22;65507;48.454;-2.058;2023-02-01T14:49:24;11.80;71.50
76613;DHT22;65507;48.454;-2.058;2023-02-01T14:51:53;11.70;71.60
76613;DHT22;65507;48.454;-2.058;2023-02-01T14:54:19;11.70;71.80
76613;DHT22;65507;48.454;-2.058;2023-02-01T14:56:45;11.60;72.80
76613;DHT22;65507;48.454;-2.058;2023-02-01T14:59:15;12.10;72.10
76613;DHT22;65507;48.454;-2.058;2023-02-01T15:01:50;11.60;71.90
76613;DHT22;65507;48.454;-2.058;2023-02-01T15:04:18;11.60;71.80
76613;DHT22;65507;48.454;-2.058;2023-02-01T15:06:46;11.70;71.70
76613;DHT22;65507;48.454;-2.058;2023-02-01T15:09:16;12.80;72.30
76613;DHT22;65507;48.454;-2.058;2023-02-01T15:11:57;11.80;71.70
76613;DHT22;65507;48.454;-2.058;2023-02-01T15:14:23;11.80;71.60
76613;DHT22;65507;48.454;-2.058;2023-02-01T15:16:49;11.80;71.50
76613;DHT22;65507;48.454;-2.058;2023-02-01T15:19:21;11.80;71.60
76613;DHT22;65507;48.454;-2.058;2023-02-01T15:21:48;11.80;71.80
76613;DHT22;65507;48.454;-2.058;2023-02-01T15:24:18;11.70;71.80
76613;DHT22;65507;48.454;-2.058;2023-02-01T15:26:44;11.70;72.00
76613;DHT22;65507;48.454;-2.058;2023-02-01T15:29:10;11.70;72.10
76613;DHT22;65507;48.454;-2.058;2023-02-01T15:31:37;11.60;72.20
76613;DHT22;65507;48.454;-2.058;2023-02-01T15:34:05;11.60;72.20
76613;DHT22;65507;48.454;-2.058;2023-02-01T15:36:31;11.50;72.30
76613;DHT22;65507;48.454;-2.058;2023-02-01T15:41:39;11.40;72.50
76613;DHT22;65507;48.454;-2.058;2023-02-01T15:44:48;11.40;72.50
76613;DHT22;65507;48.454;-2.058;2023-02-01T15:46:55;11.30;72.60
76613;DHT22;65507;48.454;-2.058;2023-02-01T15:49:23;11.30;72.60
76613;DHT22;65507;48.454;-2.058;2023-02-01T15:51:50;11.30;72.60
76613;DHT22;65507;48.454;-2.058;2023-02-01T15:54:17;11.20;72.60
76613;DHT22;65507;48.454;-2.058;2023-02-01T15:56:53;11.20;72.50
76613;DHT22;65507;48.454;-2.058;2023-02-01T15:59:21;11.20;72.50
76613;DHT22;65507;48.454;-2.058;2023-02-01T16:01:47;11.20;72.40
76613;DHT22;65507;48.454;-2.058;2023-02-01T16:06:46;11.20;72.30
76613;DHT22;65507;48.454;-2.058;2023-02-01T16:09:13;11.10;72.40
76613;DHT22;65507;48.454;-2.058;2023-02-01T16:11:41;11.10;72.50
76613;DHT22;65507;48.454;-2.058;2023-02-01T16:14:07;11.10;72.60
76613;DHT22;65507;48.454;-2.058;2023-02-01T16:16:35;11.10;72.60
76613;DHT22;65507;48.454;-2.058;2023-02-01T16:19:02;11.00;72.60
76613;DHT22;65507;48.454;-2.058;2023-02-01T16:21:28;11.10;72.60
76613;DHT22;65507;48.454;-2.058;2023-02-01T16:23:54;11.00;72.50
76613;DHT22;65507;48.454;-2.058;2023-02-01T16:26:19;11.00;72.50
76613;DHT22;65507;48.454;-2.058;2023-02-01T16:28:45;11.00;72.50
76613;DHT22;65507;48.454;-2.058;2023-02-01T16:31:12;11.00;72.50
76613;DHT22;65507;48.454;-2.058;2023-02-01T16:33:50;11.00;72.50
76613;DHT22;65507;48.454;-2.058;2023-02-01T16:36:17;11.00;72.50
76613;DHT22;65507;48.454;-2.058;2023-02-01T16:38:42;11.00;72.60
76613;DHT22;65507;48.454;-2.058;2023-02-01T16:41:18;11.00;72.60
76613;DHT22;65507;48.454;-2.058;2023-02-01T16:43:44;11.00;72.60
76613;DHT22;65507;48.454;-2.058;2023-02-01T16:46:13;11.00;72.50
76613;DHT22;65507;48.454;-2.058;2023-02-01T16:48:40;10.90;72.50
76613;DHT22;65507;48.454;-2.058;2023-02-01T16:51:10;10.90;72.50
76613;DHT22;65507;48.454;-2.058;2023-02-01T16:53:36;11.00;72.60
76613;DHT22;65507;48.454;-2.058;2023-02-01T16:56:07;11.00;72.50
76613;DHT22;65507;48.454;-2.058;2023-02-01T16:58:34;11.00;72.50
76613;DHT22;65507;48.454;-2.058;2023-02-01T17:01:00;11.00;72.40
76613;DHT22;65507;48.454;-2.058;2023-02-01T17:03:25;11.00;72.50
76613;DHT22;65507;48.454;-2.058;2023-02-01T17:05:52;11.00;72.40
76613;DHT22;65507;48.454;-2.058;2023-02-01T17:08:29;11.10;72.50
76613;DHT22;65507;48.454;-2.058;2023-02-01T17:10:56;11.10;72.40
76613;DHT22;65507;48.454;-2.058;2023-02-01T17:13:21;11.10;72.40
76613;DHT22;65507;48.454;-2.058;2023-02-01T17:16:20;11.10;72.50
76613;DHT22;65507;48.454;-2.058;2023-02-01T17:18:38;10.40;72.20
76613;DHT22;65507;48.454;-2.058;2023-02-01T17:21:04;11.00;72.70
76613;DHT22;65507;48.454;-2.058;2023-02-01T17:23:30;10.90;72.70
76613;DHT22;65507;48.454;-2.058;2023-02-01T17:25:56;10.90;72.90
76613;DHT22;65507;48.454;-2.058;2023-02-01T17:28:22;10.90;72.90
76613;DHT22;65507;48.454;-2.058;2023-02-01T17:30:47;10.80;72.90
76613;DHT22;65507;48.454;-2.058;2023-02-01T17:33:19;10.90;73.10
76613;DHT22;65507;48.454;-2.058;2023-02-01T17:35:45;10.90;72.90
76613;DHT22;65507;48.454;-2.058;2023-02-01T17:38:12;10.90;73.00
76613;DHT22;65507;48.454;-2.058;2023-02-01T17:40:38;10.90;73.00
76613;DHT22;65507;48.454;-2.058;2023-02-01T17:43:03;10.80;73.00
76613;DHT22;65507;48.454;-2.058;2023-02-01T17:45:34;10.80;73.00
76613;DHT22;65507;48.454;-2.058;2023-02-01T17:48:03;10.80;73.00
76613;DHT22;65507;48.454;-2.058;2023-02-01T17:50:30;10.80;73.00
76613;DHT22;65507;48.454;-2.058;2023-02-01T17:52:56;10.80;73.00